3N8

Mahnomen County Airport

Mahnomen, Minnesota, USA
METAR K3N8 261255Z AUTO 35015KT 10SM CLR 05/M01 A2994 RMK AO2 T00541008
Observed Flight Rules
Apr-26 @ 12:55 UTC (34 minutes ago) Visual Flight Rules
Wind Visibility Clouds
350° at 15 knots 10 miles
  • Clear skies
Temperatures Readings
Current 5°C / 41°F
Dewpoint -1°C / 30°F
Humidity 66%
Altimeter 29.94" Hg
Pressure 1014 hPa
Elevation 383
METAR K3N8 261255Z AUTO 35015KT 10SM CLR 05/M01 A2994 RMK AO2 T00541008
Observed Flight Rules
Apr-26 @ 12:55 UTC
(34 minutes ago)
VFR
Wind Visibility
350° at 15 knots 10 miles
Clouds
  • Clear skies
Temperature Dewpoint
5°C / 41°F -1°C / 30°F
Humidity Altimeter Pressure
66% 29.94" Hg 1014 hPa